createdAt,value
2023-05-22T00:01:06.680Z,24.94
2023-05-22T00:03:12.100Z,24.94
2023-05-22T00:05:17.509Z,24.94
2023-05-22T00:07:22.941Z,24.93
2023-05-22T00:09:28.372Z,24.89
2023-05-22T00:11:33.609Z,24.9
2023-05-22T00:13:38.841Z,24.89
2023-05-22T00:15:44.178Z,24.87
2023-05-22T00:17:49.570Z,24.88
2023-05-22T00:19:55.056Z,24.87
2023-05-22T00:22:00.399Z,24.86
2023-05-22T00:24:05.654Z,24.84
2023-05-22T00:26:10.976Z,24.83
2023-05-22T00:28:16.614Z,24.84
2023-05-22T00:30:22.058Z,24.85
2023-05-22T00:32:27.615Z,24.87
2023-05-22T00:34:33.071Z,24.87
2023-05-22T00:36:38.480Z,24.89
2023-05-22T00:38:43.726Z,24.88
2023-05-22T00:40:49.261Z,24.88
2023-05-22T00:42:54.601Z,24.88
2023-05-22T00:44:59.768Z,24.88
2023-05-22T00:47:05.078Z,24.86
2023-05-22T00:49:10.512Z,24.86
2023-05-22T00:51:15.962Z,24.86
2023-05-22T00:53:21.290Z,24.85
2023-05-22T00:55:26.633Z,24.82
2023-05-22T00:57:31.860Z,24.78
2023-05-22T00:59:37.099Z,24.75
2023-05-22T01:01:42.676Z,24.76
2023-05-22T01:03:48.373Z,24.76
2023-05-22T01:05:53.930Z,24.75
2023-05-22T01:07:59.266Z,24.74
2023-05-22T01:10:04.716Z,24.73
2023-05-22T01:12:10.147Z,24.74
2023-05-22T01:14:15.385Z,24.74
2023-05-22T01:16:20.833Z,24.74
2023-05-22T01:18:26.162Z,24.73
2023-05-22T01:20:31.399Z,24.71
2023-05-22T01:22:36.839Z,24.69
2023-05-22T01:24:42.195Z,24.67
2023-05-22T01:26:47.516Z,24.65
2023-05-22T01:28:52.960Z,24.64
2023-05-22T01:30:58.190Z,24.62
2023-05-22T01:33:03.852Z,24.6
2023-05-22T01:35:09.478Z,24.61
2023-05-22T01:37:15.018Z,24.61
2023-05-22T01:39:20.262Z,24.59
2023-05-22T01:41:25.699Z,24.61
2023-05-22T01:43:31.145Z,24.6
2023-05-22T01:45:36.404Z,24.58
2023-05-22T01:47:41.841Z,24.58
2023-05-22T01:49:47.271Z,24.58
2023-05-22T01:51:52.496Z,24.57
2023-05-22T01:53:57.937Z,24.58
2023-05-22T01:56:03.490Z,24.57
2023-05-22T01:58:08.720Z,24.57
2023-05-22T02:00:13.959Z,24.57
2023-05-22T02:02:19.733Z,24.56
2023-05-22T02:04:25.237Z,24.56
2023-05-22T02:06:30.469Z,24.54
2023-05-22T02:08:35.706Z,24.52
2023-05-22T02:10:41.296Z,24.51
2023-05-22T02:12:46.696Z,24.5
2023-05-22T02:14:52.032Z,24.5
2023-05-22T02:16:57.267Z,24.5
2023-05-22T02:19:02.515Z,24.5
2023-05-22T02:21:07.959Z,24.49
2023-05-22T02:23:13.393Z,24.45
2023-05-22T02:25:18.823Z,24.45
2023-05-22T02:27:24.159Z,24.43
2023-05-22T02:29:29.419Z,24.4
2023-05-22T02:31:34.869Z,24.37
2023-05-22T02:33:40.289Z,24.39
2023-05-22T02:35:45.727Z,24.38
2023-05-22T02:37:51.160Z,24.37
2023-05-22T02:39:56.497Z,24.35
2023-05-22T02:42:02.041Z,24.34
2023-05-22T02:44:07.274Z,24.33
2023-05-22T02:46:12.762Z,24.32
2023-05-22T02:48:18.225Z,24.29
2023-05-22T02:50:23.490Z,24.29
2023-05-22T02:52:28.736Z,24.27
2023-05-22T02:54:34.091Z,24.25
2023-05-22T02:56:39.404Z,24.26
2023-05-22T02:58:44.631Z,24.27
2023-05-22T03:02:08.358Z,24.21
2023-05-22T03:04:14.181Z,24.21
2023-05-22T03:06:19.601Z,24.2
2023-05-22T03:08:24.835Z,24.2
2023-05-22T03:10:30.176Z,24.18
2023-05-22T03:12:35.514Z,24.19
2023-05-22T03:14:40.870Z,24.19
2023-05-22T03:16:46.436Z,24.19
2023-05-22T03:18:51.858Z,24.16
2023-05-22T03:20:57.293Z,24.17
2023-05-22T03:23:02.718Z,24.17
2023-05-22T03:25:07.953Z,24.17
2023-05-22T03:27:13.290Z,24.17
2023-05-22T03:29:18.643Z,24.15
2023-05-22T03:31:24.038Z,24.15
2023-05-22T03:33:29.343Z,24.13
2023-05-22T03:35:34.744Z,24.15
2023-05-22T03:37:40.081Z,24.15
2023-05-22T03:39:45.320Z,24.1
2023-05-22T03:41:50.860Z,24.11
2023-05-22T03:43:56.205Z,24.09
2023-05-22T03:46:01.461Z,24.08
2023-05-22T03:48:06.895Z,24.07
2023-05-22T03:50:12.318Z,24.06
2023-05-22T03:52:17.661Z,24.04
2023-05-22T03:54:22.903Z,24.05
2023-05-22T03:56:28.325Z,24.01
2023-05-22T03:58:33.671Z,24.04
2023-05-22T04:00:39.108Z,24.02
2023-05-22T04:02:44.962Z,24.02
2023-05-22T04:04:50.718Z,24.01
2023-05-22T04:06:56.354Z,24
2023-05-22T04:09:01.545Z,24
2023-05-22T04:11:06.917Z,24.03
2023-05-22T04:13:12.364Z,24.03
2023-05-22T04:15:17.800Z,24.02
2023-05-22T04:17:22.945Z,24.01
2023-05-22T04:19:28.734Z,23.98
2023-05-22T04:21:34.594Z,23.97
2023-05-22T04:23:39.986Z,23.96
2023-05-22T04:25:45.217Z,23.97
2023-05-22T04:27:50.937Z,23.98
2023-05-22T04:29:56.811Z,23.98
2023-05-22T04:32:02.158Z,23.97
2023-05-22T04:34:07.486Z,23.99
2023-05-22T04:36:12.833Z,24
2023-05-22T04:38:18.265Z,23.97
2023-05-22T04:40:23.710Z,23.97
2023-05-22T04:42:29.137Z,23.98
2023-05-22T04:44:34.506Z,23.95
2023-05-22T04:46:39.948Z,23.95
2023-05-22T04:48:45.366Z,23.93
2023-05-22T04:50:50.900Z,23.94
2023-05-22T04:52:56.240Z,23.93
2023-05-22T04:55:02.293Z,23.96
2023-05-22T04:57:10.134Z,23.96
2023-05-22T04:59:15.539Z,23.97
2023-05-22T05:01:21.007Z,23.99
2023-05-22T05:03:26.547Z,23.98
2023-05-22T05:05:32.052Z,24
2023-05-22T05:07:37.399Z,24.03
2023-05-22T05:09:43.037Z,24.04
2023-05-22T05:11:48.267Z,24.04
2023-05-22T05:13:53.711Z,24.05
2023-05-22T05:15:59.259Z,24.01
2023-05-22T05:18:04.483Z,24
2023-05-22T05:20:09.932Z,23.98
2023-05-22T05:22:15.374Z,23.98
2023-05-22T05:24:20.714Z,23.98
2023-05-22T05:26:26.263Z,23.97
2023-05-22T05:28:31.697Z,23.95
2023-05-22T05:30:37.397Z,23.91
2023-05-22T05:32:43.708Z,23.92
2023-05-22T05:34:49.257Z,23.92
2023-05-22T05:36:54.574Z,23.93
2023-05-22T05:38:59.824Z,23.91
2023-05-22T05:41:05.048Z,23.89
2023-05-22T05:43:10.596Z,23.9
2023-05-22T05:45:15.836Z,23.88
2023-05-22T05:47:21.097Z,23.83
2023-05-22T05:49:27.223Z,23.8
2023-05-22T05:51:32.556Z,23.79
2023-05-22T05:53:39.952Z,23.81
2023-05-22T05:55:45.388Z,23.85
2023-05-22T05:57:50.828Z,23.86
2023-05-22T05:59:56.167Z,23.85
2023-05-22T06:02:01.397Z,23.88
2023-05-22T06:04:06.678Z,23.91
2023-05-22T06:06:12.076Z,23.94
2023-05-22T06:08:17.417Z,23.94
2023-05-22T06:10:22.763Z,23.92
2023-05-22T06:12:28.197Z,23.86
2023-05-22T06:14:33.946Z,23.84
2023-05-22T06:16:39.196Z,23.79
2023-05-22T06:18:44.734Z,23.77
2023-05-22T06:20:50.165Z,23.7
2023-05-22T06:22:55.329Z,23.67
2023-05-22T06:25:00.638Z,23.68
2023-05-22T06:27:05.728Z,23.7
2023-05-22T06:29:10.947Z,23.73
2023-05-22T06:31:16.036Z,23.75
2023-05-22T06:33:21.253Z,23.8
2023-05-22T06:35:26.758Z,23.86
2023-05-22T06:37:31.847Z,23.9
2023-05-22T06:39:37.084Z,23.94
2023-05-22T06:41:42.169Z,23.94
2023-05-22T06:43:47.264Z,23.96
2023-05-22T06:45:52.388Z,23.98
2023-05-22T06:47:57.861Z,24
2023-05-22T06:50:03.264Z,24.04
2023-05-22T06:52:08.491Z,24.01
2023-05-22T06:54:13.834Z,24
2023-05-22T06:56:19.276Z,23.97
2023-05-22T06:58:24.625Z,23.94
2023-05-22T07:00:30.060Z,23.93
2023-05-22T07:02:35.402Z,23.94
2023-05-22T07:04:40.861Z,23.93
2023-05-22T07:06:46.466Z,23.93
2023-05-22T07:08:52.017Z,23.95
2023-05-22T07:10:57.460Z,23.95
2023-05-22T07:13:02.785Z,23.96
2023-05-22T07:15:08.132Z,23.94
2023-05-22T07:17:13.357Z,23.96
2023-05-22T07:19:18.821Z,23.97
2023-05-22T07:21:24.247Z,23.99
2023-05-22T07:23:29.477Z,23.99
2023-05-22T07:25:34.712Z,24
2023-05-22T07:27:39.952Z,24.01
2023-05-22T07:29:45.286Z,24
2023-05-22T07:31:50.761Z,24.04
2023-05-22T07:33:56.172Z,24.03
2023-05-22T07:36:01.608Z,24.04
2023-05-22T07:38:07.150Z,24.06
2023-05-22T07:40:12.593Z,24.07
2023-05-22T07:42:17.852Z,24.09
2023-05-22T07:44:23.169Z,24.12
2023-05-22T07:46:28.428Z,24.13
2023-05-22T07:48:33.945Z,24.14
2023-05-22T07:50:39.286Z,24.14
2023-05-22T07:52:44.617Z,24.17
2023-05-22T07:54:50.007Z,24.18
2023-05-22T07:56:55.394Z,24.17
2023-05-22T07:59:00.738Z,24.2
2023-05-22T08:01:08.061Z,24.2
2023-05-22T08:03:14.207Z,24.25
2023-05-22T08:05:22.966Z,24.25
2023-05-22T08:07:28.738Z,24.24
2023-05-22T08:09:34.072Z,24.25
2023-05-22T08:11:39.969Z,24.28
2023-05-22T08:13:45.465Z,24.3
2023-05-22T08:15:50.699Z,24.33
2023-05-22T08:18:05.882Z,24.36
2023-05-22T08:20:12.602Z,24.36
2023-05-22T08:22:18.283Z,24.39
2023-05-22T08:24:23.524Z,24.4
2023-05-22T08:26:30.009Z,24.4
2023-05-22T08:28:36.659Z,24.43
2023-05-22T08:30:41.997Z,24.44
2023-05-22T08:32:47.339Z,24.47
2023-05-22T08:34:52.774Z,24.5
2023-05-22T08:36:58.104Z,24.49
2023-05-22T08:39:03.342Z,24.52
2023-05-22T08:41:08.683Z,24.52
2023-05-22T08:43:14.026Z,24.52
2023-05-22T08:45:19.357Z,24.53
2023-05-22T08:47:24.809Z,24.56
2023-05-22T08:49:30.473Z,24.56
2023-05-22T08:51:35.803Z,24.55
2023-05-22T08:53:41.118Z,24.55
2023-05-22T08:55:46.660Z,24.56
2023-05-22T08:57:51.998Z,24.56
2023-05-22T08:59:57.237Z,24.57
2023-05-22T09:02:03.764Z,24.57
2023-05-22T09:04:11.000Z,24.58
2023-05-22T09:06:16.424Z,24.58
2023-05-22T09:08:21.656Z,24.58
2023-05-22T09:10:26.901Z,24.59
2023-05-22T09:12:32.240Z,24.6
2023-05-22T09:14:37.475Z,24.62
2023-05-22T09:16:42.843Z,24.63
2023-05-22T09:18:48.189Z,24.65
2023-05-22T09:20:53.591Z,24.66
2023-05-22T09:22:58.823Z,24.67
2023-05-22T09:25:04.621Z,24.67
2023-05-22T09:27:10.015Z,24.66
2023-05-22T09:29:15.556Z,24.66
2023-05-22T09:31:20.930Z,24.67
2023-05-22T09:33:26.434Z,24.69
2023-05-22T09:35:31.671Z,24.72
2023-05-22T09:37:37.124Z,24.74
2023-05-22T09:39:42.352Z,24.75
2023-05-22T09:41:47.688Z,24.75
2023-05-22T09:43:52.932Z,24.75
2023-05-22T09:45:58.201Z,24.74
2023-05-22T09:48:03.836Z,24.71
2023-05-22T09:50:09.547Z,24.7
2023-05-22T09:52:14.885Z,24.68
2023-05-22T09:54:20.141Z,24.7
2023-05-22T09:56:35.094Z,24.7
2023-05-22T09:58:44.318Z,24.7
2023-05-22T10:00:49.661Z,24.7
2023-05-22T10:02:55.113Z,24.74
2023-05-22T10:05:00.740Z,24.78
2023-05-22T10:07:06.174Z,24.81
2023-05-22T10:09:11.412Z,24.83
2023-05-22T10:11:16.863Z,24.81
2023-05-22T10:13:22.102Z,24.81
2023-05-22T10:15:27.534Z,24.83
2023-05-22T10:17:32.793Z,24.87
2023-05-22T10:19:40.416Z,24.9
2023-05-22T10:21:49.818Z,24.87
2023-05-22T10:23:55.134Z,24.9
2023-05-22T10:26:00.575Z,24.9
2023-05-22T10:28:05.789Z,24.89
2023-05-22T10:30:11.246Z,24.86
2023-05-22T10:32:16.685Z,24.87
2023-05-22T10:34:21.958Z,24.86
2023-05-22T10:36:27.279Z,24.86
2023-05-22T10:38:32.707Z,24.89
2023-05-22T10:40:38.654Z,24.87
2023-05-22T10:42:44.095Z,24.88
2023-05-22T10:44:49.435Z,24.89
2023-05-22T10:46:54.767Z,24.82
2023-05-22T10:49:00.117Z,24.79
2023-05-22T10:51:05.660Z,24.78
2023-05-22T10:53:10.899Z,24.77
2023-05-22T10:55:16.347Z,24.79
2023-05-22T10:57:21.776Z,24.85
2023-05-22T10:59:26.909Z,24.87
2023-05-22T11:01:32.422Z,24.87
2023-05-22T11:03:37.957Z,24.89
2023-05-22T11:05:43.391Z,24.95
2023-05-22T11:07:48.682Z,24.93
2023-05-22T11:09:54.124Z,24.94
2023-05-22T11:11:59.443Z,24.96
2023-05-22T11:14:04.800Z,24.94
2023-05-22T11:16:10.016Z,24.97
2023-05-22T11:18:15.403Z,24.96
2023-05-22T11:20:20.798Z,24.98
2023-05-22T11:22:26.025Z,25.01
2023-05-22T11:24:31.379Z,25.03
2023-05-22T11:26:36.709Z,25.09
2023-05-22T11:28:41.945Z,25.18
2023-05-22T11:30:47.422Z,25.19
2023-05-22T11:32:52.752Z,25.18
2023-05-22T11:34:58.164Z,25.15
2023-05-22T11:37:03.605Z,25.15
2023-05-22T11:39:08.944Z,25.26
2023-05-22T11:41:14.186Z,25.31
2023-05-22T11:43:19.799Z,25.34
2023-05-22T11:45:25.159Z,25.41
2023-05-22T11:47:30.721Z,25.46
2023-05-22T11:49:36.238Z,25.52
2023-05-22T11:51:41.591Z,25.59
2023-05-22T11:53:47.026Z,25.63
2023-05-22T11:55:52.259Z,25.67
2023-05-22T11:57:57.708Z,25.71
2023-05-22T12:00:03.171Z,25.73
2023-05-22T12:02:08.581Z,25.73
2023-05-22T12:04:14.125Z,25.67
2023-05-22T12:06:19.800Z,25.67
2023-05-22T12:08:25.306Z,25.6
2023-05-22T12:10:30.531Z,25.6
2023-05-22T12:12:35.773Z,25.61
2023-05-22T12:14:41.019Z,25.6
2023-05-22T12:16:46.393Z,25.62
2023-05-22T12:18:52.550Z,25.67
2023-05-22T12:20:58.185Z,25.64
2023-05-22T12:23:03.495Z,25.71
2023-05-22T12:25:08.856Z,25.78
2023-05-22T12:27:14.270Z,25.83
2023-05-22T12:29:19.606Z,25.87
2023-05-22T12:31:24.845Z,25.9
2023-05-22T12:33:30.383Z,25.92
2023-05-22T12:35:35.928Z,25.96
2023-05-22T12:37:41.259Z,25.97
2023-05-22T12:39:46.902Z,25.95
2023-05-22T12:41:52.145Z,25.92
2023-05-22T12:43:57.385Z,25.87
2023-05-22T12:46:02.940Z,25.86
2023-05-22T12:48:08.568Z,25.88
2023-05-22T12:50:14.011Z,25.91
2023-05-22T12:52:19.456Z,25.91
2023-05-22T12:54:24.951Z,25.9
2023-05-22T12:56:30.339Z,25.9
2023-05-22T12:58:35.876Z,25.92
2023-05-22T13:00:41.228Z,25.97
2023-05-22T13:02:46.803Z,25.97
2023-05-22T13:04:52.470Z,25.93
2023-05-22T13:06:57.958Z,25.86
2023-05-22T13:09:03.292Z,25.84
2023-05-22T13:11:08.567Z,25.79
2023-05-22T13:13:13.853Z,25.75
2023-05-22T13:15:19.124Z,25.75
2023-05-22T13:17:26.075Z,25.75
2023-05-22T13:19:31.751Z,25.71
2023-05-22T13:21:37.523Z,25.67
2023-05-22T13:23:42.925Z,25.66
2023-05-22T13:25:48.300Z,25.72
2023-05-22T13:27:53.492Z,25.77
2023-05-22T13:29:58.881Z,25.83
2023-05-22T13:32:04.268Z,25.85
2023-05-22T13:34:09.601Z,25.83
2023-05-22T13:36:15.195Z,25.83
2023-05-22T13:38:20.534Z,25.85
2023-05-22T13:40:25.774Z,25.82
2023-05-22T13:42:31.007Z,25.79
2023-05-22T13:44:36.456Z,25.77
2023-05-22T13:46:41.915Z,25.75
2023-05-22T13:48:47.284Z,25.78
2023-05-22T13:50:53.094Z,25.75
2023-05-22T13:52:58.413Z,25.72
2023-05-22T13:55:03.669Z,25.7
2023-05-22T13:57:09.018Z,25.68
2023-05-22T13:59:14.238Z,25.68
2023-05-22T14:01:19.716Z,25.72
2023-05-22T14:03:25.078Z,25.79
2023-05-22T14:05:30.653Z,25.81
2023-05-22T14:07:36.094Z,25.76
2023-05-22T14:09:41.433Z,25.75
2023-05-22T14:11:46.778Z,25.75
2023-05-22T14:13:52.224Z,25.78
2023-05-22T14:15:57.521Z,25.79
2023-05-22T14:18:02.900Z,25.81
2023-05-22T14:20:08.201Z,25.83
2023-05-22T14:22:13.438Z,25.84
2023-05-22T14:24:18.698Z,25.84
2023-05-22T14:26:24.245Z,25.83
2023-05-22T14:28:30.195Z,25.81
2023-05-22T14:30:35.650Z,25.75
2023-05-22T14:32:41.215Z,25.71
2023-05-22T14:34:46.511Z,25.68
2023-05-22T14:36:51.852Z,25.67
2023-05-22T14:38:57.223Z,25.65
2023-05-22T14:41:02.555Z,25.65
2023-05-22T14:43:08.378Z,25.64
2023-05-22T14:45:13.610Z,25.65
2023-05-22T14:47:18.947Z,25.64
2023-05-22T14:49:24.051Z,25.61
2023-05-22T14:51:29.343Z,25.62
2023-05-22T14:53:34.648Z,25.6
2023-05-22T14:55:39.974Z,25.62
2023-05-22T14:57:45.764Z,25.64
2023-05-22T14:59:50.950Z,25.66
2023-05-22T15:01:56.262Z,25.71
2023-05-22T15:04:01.676Z,25.72
2023-05-22T15:06:07.090Z,25.71
2023-05-22T15:08:12.401Z,25.68
2023-05-22T15:10:17.684Z,25.66
2023-05-22T15:12:23.008Z,25.64
2023-05-22T15:14:28.360Z,25.63
2023-05-22T15:16:33.690Z,25.62
2023-05-22T15:18:39.026Z,25.62
2023-05-22T15:20:44.588Z,25.63
2023-05-22T15:22:50.017Z,25.64
2023-05-22T15:24:55.600Z,25.66
2023-05-22T15:27:00.735Z,25.67
2023-05-22T15:29:06.023Z,25.66
2023-05-22T15:31:11.310Z,25.66
2023-05-22T15:33:16.593Z,25.66
2023-05-22T15:35:21.932Z,25.63
2023-05-22T15:37:27.313Z,25.62
2023-05-22T15:39:35.483Z,25.6
2023-05-22T15:41:41.240Z,25.61
2023-05-22T15:44:08.266Z,25.62
2023-05-22T15:46:13.742Z,25.62
2023-05-22T15:48:19.149Z,25.65
2023-05-22T15:50:24.460Z,25.62
2023-05-22T15:52:30.027Z,25.61
2023-05-22T15:54:35.371Z,25.61
2023-05-22T15:56:40.703Z,25.61
2023-05-22T15:58:45.951Z,25.6
2023-05-22T16:00:51.399Z,25.58
2023-05-22T16:02:56.860Z,25.54
2023-05-22T16:05:02.800Z,25.52
2023-05-22T16:07:08.220Z,25.52
2023-05-22T16:09:13.751Z,25.5
2023-05-22T16:11:18.994Z,25.51
2023-05-22T16:13:24.740Z,25.52
2023-05-22T16:15:30.082Z,25.53
2023-05-22T16:17:35.537Z,25.57
2023-05-22T16:19:40.859Z,25.56
2023-05-22T16:21:46.816Z,25.58
2023-05-22T16:23:52.040Z,25.59
2023-05-22T16:25:57.509Z,25.59
2023-05-22T16:28:02.822Z,25.57
2023-05-22T16:30:08.206Z,25.54
2023-05-22T16:32:13.497Z,25.55
2023-05-22T16:34:18.828Z,25.53
2023-05-22T16:36:25.761Z,25.51
2023-05-22T16:38:31.663Z,25.52
2023-05-22T16:40:36.804Z,25.5
2023-05-22T16:42:41.951Z,25.51
2023-05-22T16:44:47.081Z,25.53
2023-05-22T16:46:52.221Z,25.54
2023-05-22T16:48:57.608Z,25.56
2023-05-22T16:51:03.083Z,25.55
2023-05-22T16:53:08.415Z,25.57
2023-05-22T16:55:13.766Z,25.54
2023-05-22T16:57:19.405Z,25.55
2023-05-22T16:59:25.045Z,25.55
2023-05-22T17:01:30.956Z,25.56
2023-05-22T17:03:36.504Z,25.55
2023-05-22T17:05:42.593Z,25.52
2023-05-22T17:07:48.134Z,25.49
2023-05-22T17:09:53.686Z,25.45
2023-05-22T17:11:59.119Z,25.45
2023-05-22T17:14:04.355Z,25.47
2023-05-22T17:16:09.835Z,25.52
2023-05-22T17:18:15.132Z,25.57
2023-05-22T17:20:20.466Z,25.58
2023-05-22T17:22:25.815Z,25.62
2023-05-22T17:24:31.153Z,25.64
2023-05-22T17:26:36.491Z,25.66
2023-05-22T17:28:41.782Z,25.69
2023-05-22T17:30:47.096Z,25.67
2023-05-22T17:32:52.400Z,25.66
2023-05-22T17:34:57.847Z,25.65
2023-05-22T17:37:03.125Z,25.63
2023-05-22T17:39:08.339Z,25.61
2023-05-22T17:41:13.642Z,25.62
2023-05-22T17:43:19.098Z,25.62
2023-05-22T17:45:24.270Z,25.63
2023-05-22T17:47:29.409Z,25.63
2023-05-22T17:49:34.790Z,25.63
2023-05-22T17:51:40.127Z,25.59
2023-05-22T17:53:45.364Z,25.59
2023-05-22T17:55:50.508Z,25.59
2023-05-22T17:57:56.260Z,25.57
2023-05-22T18:00:01.700Z,25.59
2023-05-22T18:02:07.123Z,25.59
2023-05-22T18:04:12.671Z,25.57
2023-05-22T18:06:17.929Z,25.54
2023-05-22T18:08:27.001Z,25.52
2023-05-22T18:10:32.568Z,25.53
2023-05-22T18:12:38.560Z,25.51
2023-05-22T18:14:44.275Z,25.5
2023-05-22T18:16:49.717Z,25.5
2023-05-22T18:18:55.019Z,25.48
2023-05-22T18:21:00.495Z,25.48
2023-05-22T18:23:05.832Z,25.46
2023-05-22T18:25:11.369Z,25.46
2023-05-22T18:27:16.723Z,25.43
2023-05-22T18:29:22.156Z,25.39
2023-05-22T18:31:27.704Z,25.37
2023-05-22T18:33:33.241Z,25.36
2023-05-22T18:35:38.471Z,25.37
2023-05-22T18:37:44.216Z,25.35
2023-05-22T18:39:49.559Z,25.34
2023-05-22T18:41:54.794Z,25.34
2023-05-22T18:44:00.227Z,25.32
2023-05-22T18:46:05.772Z,25.32
2023-05-22T18:48:11.249Z,25.3
2023-05-22T18:50:17.185Z,25.3
2023-05-22T18:52:25.691Z,25.32
2023-05-22T18:54:31.036Z,25.33
2023-05-22T18:56:36.567Z,25.34
2023-05-22T18:58:41.801Z,25.35
2023-05-22T19:00:47.294Z,25.37
2023-05-22T19:02:52.924Z,25.35
2023-05-22T19:04:58.573Z,25.33
2023-05-22T19:07:04.202Z,25.31
2023-05-22T19:09:09.420Z,25.32
2023-05-22T19:11:14.847Z,25.31
2023-05-22T19:13:20.204Z,25.28
2023-05-22T19:15:25.667Z,25.27
2023-05-22T19:17:31.074Z,25.27
2023-05-22T19:19:36.414Z,25.24
2023-05-22T19:21:42.269Z,25.26
2023-05-22T19:23:47.701Z,25.26
2023-05-22T19:25:53.151Z,25.25
2023-05-22T19:27:58.883Z,25.24
2023-05-22T19:30:04.130Z,25.24
2023-05-22T19:32:09.379Z,25.24
2023-05-22T19:34:14.725Z,25.29
2023-05-22T19:36:20.129Z,25.32
2023-05-22T19:38:25.384Z,25.34
2023-05-22T19:40:30.708Z,25.36
2023-05-22T19:42:36.457Z,25.35
2023-05-22T19:44:41.999Z,25.34
2023-05-22T19:46:47.424Z,25.33
2023-05-22T19:48:53.082Z,25.35
2023-05-22T19:50:58.319Z,25.34
2023-05-22T19:53:03.870Z,25.33
2023-05-22T19:55:09.203Z,25.33
2023-05-22T19:57:14.552Z,25.33
2023-05-22T19:59:20.082Z,25.32
2023-05-22T20:01:25.572Z,25.34
2023-05-22T20:03:30.991Z,25.34
2023-05-22T20:05:36.714Z,25.32
2023-05-22T20:07:42.764Z,25.35
2023-05-22T20:09:48.106Z,25.36
2023-05-22T20:11:53.447Z,25.39
2023-05-22T20:13:58.779Z,25.37
2023-05-22T20:16:04.251Z,25.39
2023-05-22T20:18:09.707Z,25.36
2023-05-22T20:20:14.999Z,25.34
2023-05-22T20:22:20.267Z,25.3
2023-05-22T20:24:25.491Z,25.3
2023-05-22T20:26:30.755Z,25.29
2023-05-22T20:28:36.078Z,25.3
2023-05-22T20:30:41.452Z,25.31
2023-05-22T20:32:47.077Z,25.32
2023-05-22T20:34:52.595Z,25.33
2023-05-22T20:36:57.934Z,25.33
2023-05-22T20:39:03.307Z,25.41
2023-05-22T20:41:09.769Z,25.48
2023-05-22T20:43:15.109Z,25.53
2023-05-22T20:45:20.449Z,25.58
2023-05-22T20:47:25.899Z,25.61
2023-05-22T20:49:31.321Z,25.65
2023-05-22T20:51:36.665Z,25.63
2023-05-22T20:53:42.105Z,25.67
2023-05-22T20:55:47.440Z,25.68
2023-05-22T20:57:52.777Z,25.7
2023-05-22T20:59:58.114Z,25.7
2023-05-22T21:02:03.445Z,25.69
2023-05-22T21:04:08.949Z,25.69
2023-05-22T21:06:14.336Z,25.67
2023-05-22T21:08:19.678Z,25.65
2023-05-22T21:10:25.028Z,25.66
2023-05-22T21:12:30.316Z,25.64
2023-05-22T21:14:35.684Z,25.64
2023-05-22T21:16:40.953Z,25.63
2023-05-22T21:18:46.511Z,25.63
2023-05-22T21:20:53.594Z,25.6
2023-05-22T21:22:58.877Z,25.58
2023-05-22T21:25:04.130Z,25.59
2023-05-22T21:27:09.369Z,25.59
2023-05-22T21:29:14.582Z,25.59
2023-05-22T21:31:20.011Z,25.59
2023-05-22T21:33:25.467Z,25.56
2023-05-22T21:35:30.704Z,25.54
2023-05-22T21:37:35.954Z,25.51
2023-05-22T21:39:41.497Z,25.5
2023-05-22T21:41:48.681Z,25.48
2023-05-22T21:43:55.042Z,25.44
2023-05-22T21:46:00.470Z,25.44
2023-05-22T21:48:05.678Z,25.47
2023-05-22T21:50:11.161Z,25.49
2023-05-22T21:52:16.482Z,25.52
2023-05-22T21:54:21.817Z,25.55
2023-05-22T21:56:27.052Z,25.59
2023-05-22T21:58:32.492Z,25.62
2023-05-22T22:00:37.910Z,25.61
2023-05-22T22:02:43.841Z,25.63
2023-05-22T22:04:49.440Z,25.67
2023-05-22T22:06:54.868Z,25.68
2023-05-22T22:09:00.281Z,25.69
2023-05-22T22:11:05.647Z,25.66
2023-05-22T22:13:10.897Z,25.66
2023-05-22T22:15:16.223Z,25.67
2023-05-22T22:17:21.461Z,25.64
2023-05-22T22:19:27.026Z,25.62
2023-05-22T22:21:32.948Z,25.61
2023-05-22T22:23:38.392Z,25.62
2023-05-22T22:25:43.649Z,25.6
2023-05-22T22:27:48.960Z,25.58
2023-05-22T22:29:54.200Z,25.58
2023-05-22T22:31:59.496Z,25.59
2023-05-22T22:34:04.987Z,25.59
2023-05-22T22:36:12.928Z,25.59
2023-05-22T22:38:18.322Z,25.58
2023-05-22T22:40:25.413Z,25.56
2023-05-22T22:42:32.080Z,25.56
2023-05-22T22:44:37.508Z,25.55
2023-05-22T22:46:42.763Z,25.55
2023-05-22T22:48:48.009Z,25.55
2023-05-22T22:50:53.240Z,25.54
2023-05-22T22:52:58.584Z,25.54
2023-05-22T22:55:04.571Z,25.53
2023-05-22T22:57:10.282Z,25.5
2023-05-22T22:59:15.830Z,25.5
2023-05-22T23:01:21.004Z,25.49
2023-05-22T23:03:26.705Z,25.48
2023-05-22T23:05:31.958Z,25.47
2023-05-22T23:07:37.492Z,25.45
2023-05-22T23:09:42.926Z,25.44
2023-05-22T23:11:48.157Z,25.43
2023-05-22T23:13:53.539Z,25.43
2023-05-22T23:15:59.049Z,25.41
2023-05-22T23:18:04.553Z,25.41
2023-05-22T23:20:10.026Z,25.39
2023-05-22T23:22:15.265Z,25.38
2023-05-22T23:24:20.496Z,25.38
2023-05-22T23:26:25.834Z,25.38
2023-05-22T23:28:31.073Z,25.38
2023-05-22T23:30:36.408Z,25.37
2023-05-22T23:32:41.693Z,25.37
2023-05-22T23:34:46.977Z,25.35
2023-05-22T23:36:52.218Z,25.36
2023-05-22T23:38:57.556Z,25.35
2023-05-22T23:41:02.890Z,25.37
2023-05-22T23:43:08.132Z,25.35
2023-05-22T23:45:13.571Z,25.34
2023-05-22T23:47:18.703Z,25.33
2023-05-22T23:49:23.936Z,25.33
2023-05-22T23:51:29.168Z,25.33
2023-05-22T23:53:34.310Z,25.33
2023-05-22T23:55:39.787Z,25.31
2023-05-22T23:57:45.901Z,25.31
2023-05-22T23:59:51.661Z,25.31
